Terminal Aerodrome Forecast
Issued by NWS

Home | Current Version | Previous Version | Graphics & Text | Print | Product List | Glossary Off
Versions: 1 2 3 4 5 6 7 8 9 10 11 12 13 14 15 16 17 18 19

000
FTUS43 KABR 251753 CCA
TAFMBG
TAF COR
KMBG 251753Z 2518/2618 15011KT P6SM BKN200
      TEMPO 2518/2519 BKN009
     FM260800 12005KT 3SM BR OVC006
     FM261400 09004KT P6SM OVC008
     FM261600 VRB03KT P6SM OVC015=

USA.gov is the U.S. government's official web portal to all federal, state and local government web resources and services.